Time;durP1;ratioP1;P1;durP2;ratioP2;P2;SDS_P1;SDS_P2;PMS_P1;PMS_P2;Temp;Humidity;BMP_temperature;BMP_pressure;BME280_temperature;BME280_humidity;BME280_pressure;Samples;Min_cycle;Max_cycle;Signal;HPM_P1;HPM_P2
2023/04/26 00:01:07;;;;;;;8.38;6.43;;;;;;;2.61;96.91;101759.91;4898995;28;20409;-74
2023/04/26 00:03:32;;;;;;;12.13;6.97;;;;;;;2.60;98.47;101763.44;4901326;29;20032;-73
2023/04/26 00:06:02;;;;;;;10.98;7.10;;;;;;;2.48;98.70;101745.94;4904656;28;20511;-73
2023/04/26 00:08:28;;;;;;;11.10;7.03;;;;;;;2.52;99.44;101757.31;4905323;28;20039;-73
2023/04/26 00:10:53;;;;;;;10.35;7.45;;;;;;;2.50;99.36;101746.78;4905743;29;20032;-74
2023/04/26 00:13:18;;;;;;;14.93;7.97;;;;;;;2.49;98.39;101753.81;4914127;28;20060;-74
2023/04/26 00:15:46;;;;;;;12.55;6.68;;;;;;;2.44;99.03;101760.84;4891793;28;20111;-72
2023/04/26 00:18:12;;;;;;;11.70;7.25;;;;;;;2.41;99.69;101755.59;4916471;28;20032;-73
2023/04/26 00:20:38;;;;;;;13.55;7.60;;;;;;;2.39;99.87;101762.59;4906142;29;20059;-72
2023/04/26 00:23:03;;;;;;;10.00;7.07;;;;;;;2.37;100.00;101748.59;4906191;28;20479;-73
2023/04/26 00:25:29;;;;;;;11.48;7.07;;;;;;;2.36;99.61;101756.47;4900205;28;20485;-73
2023/04/26 00:27:54;;;;;;;12.00;7.05;;;;;;;2.29;99.92;101755.59;4906242;28;20143;-73
2023/04/26 00:30:20;;;;;;;10.93;6.97;;;;;;;2.28;100.00;101759.13;4910673;28;20036;-73
2023/04/26 00:32:46;;;;;;;9.32;7.07;;;;;;;2.25;100.00;101751.25;4908057;28;20042;-72
2023/04/26 00:35:12;;;;;;;13.18;7.88;;;;;;;2.23;100.00;101747.75;4907106;28;20059;-72
2023/04/26 00:37:37;;;;;;;12.50;7.30;;;;;;;2.21;100.00;101752.13;4920889;28;20032;-73
2023/04/26 00:40:03;;;;;;;10.35;7.68;;;;;;;2.16;100.00;101757.38;4928679;28;20028;-73
2023/04/26 00:42:29;;;;;;;12.05;7.95;;;;;;;2.20;100.00;101758.25;4906557;29;20027;-73
2023/04/26 00:44:56;;;;;;;10.75;7.88;;;;;;;2.19;100.00;101761.78;4907106;28;20271;-72
2023/04/26 00:47:22;;;;;;;14.30;8.07;;;;;;;2.15;100.00;101753.03;4943050;28;20032;-73
2023/04/26 00:49:47;;;;;;;12.50;7.63;;;;;;;2.13;100.00;101759.13;4906688;29;20567;-73
2023/04/26 00:52:12;;;;;;;10.82;7.32;;;;;;;2.00;100.00;101753.91;4923211;28;20036;-72
2023/04/26 00:54:38;;;;;;;9.90;7.55;;;;;;;2.02;100.00;101756.53;4902081;28;20052;-73
2023/04/26 00:57:05;;;;;;;15.05;8.30;;;;;;;2.03;100.00;101757.41;4906159;28;20123;-73
2023/04/26 00:59:32;;;;;;;12.18;7.40;;;;;;;1.95;100.00;101750.41;4906984;29;20111;-72
2023/04/26 01:01:57;;;;;;;14.98;8.18;;;;;;;1.98;100.00;101755.66;4906099;28;20111;-73
2023/04/26 01:04:26;;;;;;;12.80;8.23;;;;;;;1.94;100.00;101746.03;4905456;28;20115;-73
2023/04/26 01:06:51;;;;;;;14.50;8.18;;;;;;;1.93;100.00;101754.81;4939722;28;20036;-72
2023/04/26 01:09:17;;;;;;;15.60;8.05;;;;;;;1.91;100.00;101753.03;4934882;28;20092;-72
2023/04/26 01:11:43;;;;;;;13.38;8.27;;;;;;;1.91;100.00;101753.91;4919587;28;20271;-72
2023/04/26 01:14:09;;;;;;;14.40;8.90;;;;;;;1.86;100.00;101758.31;4904823;28;20063;-72
2023/04/26 01:16:35;;;;;;;13.10;8.40;;;;;;;1.83;100.00;101766.16;4915919;28;20094;-72
2023/04/26 01:19:09;;;;;;;13.38;8.48;;;;;;;1.81;100.00;101765.31;4943694;28;20036;-72
2023/04/26 01:21:35;;;;;;;12.23;9.02;;;;;;;1.77;100.00;101758.31;4906142;29;20286;-73
2023/04/26 01:24:00;;;;;;;12.27;8.52;;;;;;;1.72;100.00;101758.31;4903327;29;20407;-73
2023/04/26 01:26:26;;;;;;;12.25;8.55;;;;;;;1.69;100.00;101755.69;4915741;28;20103;-73
2023/04/26 01:28:51;;;;;;;14.45;8.68;;;;;;;1.70;100.00;101762.66;4905782;28;20032;-73
2023/04/26 01:31:16;;;;;;;12.27;8.50;;;;;;;1.65;100.00;101759.16;4907287;28;20025;-72
2023/04/26 01:33:42;;;;;;;13.55;8.60;;;;;;;1.62;100.00;101764.41;4907192;28;20039;-73
2023/04/26 01:36:09;;;;;;;13.82;8.30;;;;;;;1.61;100.00;101759.19;4911087;28;20039;-73
2023/04/26 01:38:34;;;;;;;14.15;9.95;;;;;;;1.61;100.00;101762.66;4948469;28;20482;-72
2023/04/26 01:41:00;;;;;;;15.13;9.02;;;;;;;1.61;100.00;101756.56;4918812;28;20388;-74
2023/04/26 01:43:25;;;;;;;13.95;9.52;;;;;;;1.58;100.00;101767.91;4912996;28;20046;-72
2023/04/26 01:45:51;;;;;;;15.63;9.50;;;;;;;1.48;100.00;101753.91;4906431;28;20028;-72
2023/04/26 01:48:16;;;;;;;15.82;9.02;;;;;;;1.52;100.00;101770.53;4905925;28;20070;-75
2023/04/26 01:50:41;;;;;;;15.30;10.25;;;;;;;1.44;100.00;101752.16;4905823;29;20075;-75
2023/04/26 01:53:06;;;;;;;17.02;10.32;;;;;;;1.42;100.00;101761.78;4920410;28;20036;-72
2023/04/26 01:55:35;;;;;;;14.82;10.52;;;;;;;1.39;100.00;101761.78;4905820;29;20064;-73
2023/04/26 01:58:00;;;;;;;14.50;10.05;;;;;;;1.37;100.00;101763.50;4906869;29;20034;-73
2023/04/26 02:00:27;;;;;;;13.77;9.52;;;;;;;1.35;100.00;101767.88;4916552;28;20035;-72
2023/04/26 02:02:56;;;;;;;16.60;10.00;;;;;;;1.34;100.00;101760.91;4907421;29;20072;-73
2023/04/26 02:05:24;;;;;;;15.23;10.13;;;;;;;1.29;100.00;101767.84;4906946;28;20036;-74
2023/04/26 02:07:50;;;;;;;15.52;10.13;;;;;;;1.30;100.00;101763.53;4907164;29;20070;-74
2023/04/26 02:10:16;;;;;;;14.63;9.45;;;;;;;1.29;100.00;101767.00;4909182;28;20433;-72
2023/04/26 02:12:41;;;;;;;13.93;9.93;;;;;;;1.27;100.00;101766.13;4904267;28;20038;-73
2023/04/26 02:15:07;;;;;;;16.70;9.93;;;;;;;1.28;100.00;101770.50;4905189;28;20048;-74
2023/04/26 02:17:33;;;;;;;12.15;9.25;;;;;;;1.27;100.00;101774.00;4912833;28;20473;-74
2023/04/26 02:19:58;;;;;;;13.20;10.00;;;;;;;1.21;100.00;101772.22;4924824;28;20036;-74
2023/04/26 02:22:24;;;;;;;14.27;9.90;;;;;;;1.19;100.00;101763.47;4905691;28;20032;-74
2023/04/26 02:24:51;;;;;;;15.80;10.18;;;;;;;1.17;100.00;101768.72;4906123;28;20510;-75
2023/04/26 02:27:17;;;;;;;12.60;9.57;;;;;;;1.15;100.00;101765.22;4905148;28;20123;-73
2023/04/26 02:29:42;;;;;;;17.95;10.18;;;;;;;1.12;100.00;101756.47;4885287;28;20543;-73
2023/04/26 02:32:07;;;;;;;15.13;9.93;;;;;;;1.08;100.00;101763.44;4904073;28;20465;-73
2023/04/26 02:34:33;;;;;;;15.10;9.77;;;;;;;1.08;100.00;101767.81;4903104;28;20460;-73
2023/04/26 02:36:58;;;;;;;14.48;9.60;;;;;;;1.03;100.00;101765.19;4937112;28;20499;-74
2023/04/26 02:39:24;;;;;;;14.60;10.02;;;;;;;0.97;100.00;101759.94;4906826;29;20040;-73
2023/04/26 02:41:49;;;;;;;13.73;9.90;;;;;;;0.97;100.00;101760.81;4925029;28;20032;-72
2023/04/26 02:44:16;;;;;;;14.77;9.38;;;;;;;0.94;100.00;101763.41;4904474;28;20143;-72
2023/04/26 02:46:41;;;;;;;13.20;9.77;;;;;;;0.95;100.00;101754.66;4911064;28;20046;-74
2023/04/26 02:49:06;;;;;;;14.80;10.40;;;;;;;0.90;100.00;101759.03;4927750;28;20493;-73
2023/04/26 02:51:32;;;;;;;14.32;9.32;;;;;;;0.88;100.00;101762.50;4906868;28;20030;-72
2023/04/26 02:53:57;;;;;;;13.98;9.43;;;;;;;0.80;100.00;101752.00;4904093;28;20036;-72
2023/04/26 02:56:23;;;;;;;14.45;10.82;;;;;;;0.82;100.00;101752.88;4905402;28;20028;-75
2023/04/26 02:58:48;;;;;;;14.88;9.90;;;;;;;0.82;100.00;101752.88;4905016;29;20052;-73
2023/04/26 03:01:14;;;;;;;18.00;10.68;;;;;;;0.81;100.00;101747.63;4905083;29;20028;-73
2023/04/26 03:03:39;;;;;;;16.58;10.80;;;;;;;0.76;100.00;101739.75;4903907;28;20032;-71
2023/04/26 03:06:05;;;;;;;14.93;10.40;;;;;;;0.75;100.00;101743.22;4941414;28;20147;-72
2023/04/26 03:08:31;;;;;;;16.90;10.75;;;;;;;0.77;100.00;101744.13;4914423;28;20062;-71
2023/04/26 03:10:56;;;;;;;14.98;10.40;;;;;;;0.75;100.00;101743.22;4904945;29;20507;-73
2023/04/26 03:13:23;;;;;;;14.68;9.98;;;;;;;0.75;100.00;101748.47;4900684;28;20079;-72
2023/04/26 03:15:51;;;;;;;14.52;10.73;;;;;;;0.63;100.00;101732.72;4895713;29;20323;-72
2023/04/26 03:18:16;;;;;;;14.73;10.18;;;;;;;0.65;100.00;101746.69;4936458;28;20154;-73
2023/04/26 03:20:42;;;;;;;15.05;10.70;;;;;;;0.61;100.00;101740.56;4905795;28;20042;-73
2023/04/26 03:23:07;;;;;;;15.77;10.60;;;;;;;0.57;100.00;101749.28;4915685;28;20034;-74
2023/04/26 03:25:33;;;;;;;14.30;10.32;;;;;;;0.53;100.00;101736.16;4904346;28;20024;-73
2023/04/26 03:27:58;;;;;;;16.67;10.73;;;;;;;0.52;100.00;101734.41;4929771;28;20025;-72
2023/04/26 03:30:23;;;;;;;15.75;10.40;;;;;;;0.52;100.00;101734.41;4909391;28;20028;-72
2023/04/26 03:32:49;;;;;;;17.90;11.10;;;;;;;0.54;100.00;101735.28;4908652;28;20038;-72
2023/04/26 03:35:14;;;;;;;17.15;11.43;;;;;;;0.52;100.00;101737.91;4936120;28;20026;-72
2023/04/26 03:37:39;;;;;;;19.45;11.75;;;;;;;0.47;100.00;101734.41;4923460;28;20032;-74
2023/04/26 03:40:07;;;;;;;15.00;10.57;;;;;;;0.49;100.00;101741.38;4904340;28;20079;-72
2023/04/26 03:42:33;;;;;;;17.75;11.52;;;;;;;0.41;100.00;101724.75;4916597;28;20087;-73
2023/04/26 03:44:58;;;;;;;14.95;11.10;;;;;;;0.39;100.00;101720.38;4900289;28;20107;-72
2023/04/26 03:47:23;;;;;;;17.83;11.85;;;;;;;0.38;100.00;101727.38;4907325;28;20036;-72
2023/04/26 03:49:49;;;;;;;14.65;11.07;;;;;;;0.37;100.00;101730.84;4907827;29;20210;-72
2023/04/26 03:52:14;;;;;;;15.77;12.02;;;;;;;0.37;100.00;101730.84;4919314;28;20396;-73
2023/04/26 03:54:39;;;;;;;14.93;11.60;;;;;;;0.36;100.00;101726.47;4906444;28;20066;-73
2023/04/26 03:57:05;;;;;;;14.60;11.43;;;;;;;0.34;100.00;101724.72;4917288;29;20271;-74
2023/04/26 03:59:30;;;;;;;14.52;11.48;;;;;;;0.35;100.00;101723.84;4906882;29;20032;-74
2023/04/26 04:01:55;;;;;;;13.82;11.13;;;;;;;0.38;100.00;101736.97;4922519;28;20076;-73
2023/04/26 04:04:21;;;;;;;17.00;11.23;;;;;;;0.30;100.00;101738.69;4905068;28;20036;-73
2023/04/26 04:06:47;;;;;;;18.45;12.65;;;;;;;0.32;100.00;101729.06;4906868;28;20548;-71
2023/04/26 04:09:12;;;;;;;15.93;12.00;;;;;;;0.31;100.00;101736.06;4907779;29;20199;-71
2023/04/26 04:11:37;;;;;;;18.20;12.10;;;;;;;0.28;100.00;101738.66;4905995;28;20546;-74
2023/04/26 04:14:03;;;;;;;15.93;12.10;;;;;;;0.30;100.00;101736.06;4905654;28;20035;-72
2023/04/26 04:16:28;;;;;;;17.67;11.50;;;;;;;0.25;100.00;101736.00;4907505;28;20487;-72
2023/04/26 04:18:53;;;;;;;17.65;12.23;;;;;;;0.23;100.00;101732.50;4932373;28;20499;-72
2023/04/26 04:21:19;;;;;;;16.23;11.65;;;;;;;0.25;100.00;101730.75;4906086;29;20044;-73
2023/04/26 04:23:45;;;;;;;16.13;12.20;;;;;;;0.19;100.00;101731.63;4905164;28;20359;-73
2023/04/26 04:26:11;;;;;;;16.10;12.77;;;;;;;0.23;100.00;101724.66;4910334;28;20096;-73
2023/04/26 04:28:38;;;;;;;16.92;13.23;;;;;;;0.25;100.00;101736.00;4904634;28;20333;-73
2023/04/26 04:31:04;;;;;;;17.95;13.00;;;;;;;0.22;100.00;101743.88;4906634;29;20036;-72
2023/04/26 04:33:29;;;;;;;15.82;12.88;;;;;;;0.18;100.00;101729.88;4905568;28;20110;-73
2023/04/26 04:35:55;;;;;;;20.23;13.38;;;;;;;0.22;100.00;101744.72;4914401;28;20509;-72
2023/04/26 04:38:20;;;;;;;16.88;12.68;;;;;;;0.30;100.00;101739.56;4909552;28;20115;-74
2023/04/26 04:40:49;;;;;;;20.52;13.35;;;;;;;0.34;100.00;101746.56;4909756;28;20484;-72
2023/04/26 04:43:15;;;;;;;20.08;14.10;;;;;;;0.33;100.00;101744.78;4918110;28;20170;-73
2023/04/26 04:45:41;;;;;;;18.48;13.98;;;;;;;0.38;100.00;101745.72;4906611;28;20060;-72
2023/04/26 04:48:08;;;;;;;18.45;13.85;;;;;;;0.41;100.00;101750.94;4949844;28;20333;-73
2023/04/26 04:50:34;;;;;;;18.48;13.93;;;;;;;0.46;100.00;101757.09;4906334;28;20122;-73
2023/04/26 04:53:00;;;;;;;19.52;14.68;;;;;;;0.51;100.00;101745.78;4929668;28;20033;-73
2023/04/26 04:55:26;;;;;;;21.50;15.13;;;;;;;0.62;100.00;101754.53;4948340;28;20044;-73
2023/04/26 04:57:51;;;;;;;21.60;15.52;;;;;;;0.62;100.00;101751.91;4879355;28;20031;-72
2023/04/26 05:00:18;;;;;;;19.42;15.35;;;;;;;0.72;100.00;101766.81;4896040;28;20032;-72
2023/04/26 05:02:43;;;;;;;23.55;15.15;;;;;;;0.69;100.00;101758.94;4896047;28;20048;-73
2023/04/26 05:05:09;;;;;;;20.88;15.45;;;;;;;0.81;100.00;101763.38;4893931;28;20178;-72
2023/04/26 05:07:35;;;;;;;20.00;15.35;;;;;;;0.89;100.00;101759.03;4918635;28;20424;-73
2023/04/26 05:10:01;;;;;;;24.17;15.95;;;;;;;0.89;100.00;101759.03;4907684;28;20028;-73
2023/04/26 05:12:26;;;;;;;24.08;15.38;;;;;;;1.04;100.00;101768.66;4907032;28;20047;-73
2023/04/26 05:14:51;;;;;;;19.77;15.13;;;;;;;1.13;100.00;101768.69;4906707;28;20039;-72
2023/04/26 05:17:19;;;;;;;18.98;15.40;;;;;;;1.27;100.00;101759.13;4952263;28;20030;-72
2023/04/26 05:19:45;;;;;;;22.40;15.70;;;;;;;1.42;100.00;101763.50;4922856;28;20121;-72
2023/04/26 05:22:16;;;;;;;22.13;15.75;;;;;;;1.49;100.00;101755.66;4944683;28;20024;-72
2023/04/26 05:24:42;;;;;;;23.13;17.50;;;;;;;1.64;100.00;101762.69;4907298;29;20042;-73
2023/04/26 05:27:07;;;;;;;23.25;16.65;;;;;;;1.72;100.00;101762.69;4906849;28;20020;-73
2023/04/26 05:29:33;;;;;;;26.13;18.25;;;;;;;1.82;100.00;101751.28;4907907;29;20036;-74
2023/04/26 05:31:58;;;;;;;28.52;19.52;;;;;;;1.93;100.00;101752.19;4907633;28;20025;-73
2023/04/26 05:34:24;;;;;;;36.55;25.23;;;;;;;2.14;100.00;101755.66;4922084;28;20028;-75
2023/04/26 05:36:50;;;;;;;29.52;21.45;;;;;;;2.29;100.00;101760.88;4983747;28;20043;-73
2023/04/26 05:39:16;;;;;;;26.98;18.38;;;;;;;2.44;100.00;101763.47;4944876;28;20025;-74
2023/04/26 05:41:41;;;;;;;26.45;18.92;;;;;;;2.53;100.00;101770.44;4913553;28;20040;-73
2023/04/26 05:44:07;;;;;;;26.42;18.73;;;;;;;2.62;100.00;101770.41;4919967;28;20032;-73
2023/04/26 05:46:32;;;;;;;25.20;19.63;;;;;;;2.67;100.00;101768.63;4922547;28;20043;-73
2023/04/26 05:48:57;;;;;;;26.90;19.73;;;;;;;2.78;100.00;101773.00;4953829;28;20793;-74
2023/04/26 05:51:23;;;;;;;27.88;19.13;;;;;;;2.83;100.00;101777.34;4933881;28;20036;-73
2023/04/26 05:53:48;;;;;;;26.60;18.67;;;;;;;2.88;100.00;101766.81;4910532;28;20067;-71
2023/04/26 05:56:14;;;;;;;25.63;17.85;;;;;;;3.04;100.00;101778.13;4905956;28;20127;-73
2023/04/26 05:58:39;;;;;;;23.90;17.20;;;;;;;3.16;100.00;101778.06;4905863;28;20477;-75
2023/04/26 06:01:05;;;;;;;20.52;16.13;;;;;;;3.29;100.00;101773.63;4911076;28;20029;-74
2023/04/26 06:03:30;;;;;;;22.25;16.73;;;;;;;3.42;100.00;101775.28;4905014;28;20047;-74
2023/04/26 06:05:55;;;;;;;20.90;15.73;;;;;;;3.61;100.00;101763.75;4929838;28;20527;-74
2023/04/26 06:08:21;;;;;;;22.42;15.73;;;;;;;3.82;100.00;101767.97;4915133;28;20503;-74
2023/04/26 06:10:46;;;;;;;21.15;14.43;;;;;;;4.02;99.96;101766.94;4918118;28;20029;-73
2023/04/26 06:13:11;;;;;;;22.05;15.60;;;;;;;4.19;99.47;101771.16;4907079;28;20032;-75
2023/04/26 06:15:37;;;;;;;20.08;14.70;;;;;;;4.42;97.39;101772.66;4902092;28;20106;-74
2023/04/26 06:18:04;;;;;;;20.00;14.70;;;;;;;4.56;96.14;101773.41;4945512;28;20026;-74
2023/04/26 06:20:30;;;;;;;17.20;13.77;;;;;;;4.85;97.14;101777.44;4907449;28;20174;-74
2023/04/26 06:22:55;;;;;;;22.08;14.60;;;;;;;5.08;95.65;101785.09;4904347;28;20035;-74
2023/04/26 06:25:20;;;;;;;20.67;14.55;;;;;;;5.24;94.75;101784.88;4905047;28;20032;-73
2023/04/26 06:27:46;;;;;;;20.42;14.98;;;;;;;5.35;93.13;101789.09;4906740;28;20178;-77
2023/04/26 06:30:11;;;;;;;18.02;12.98;;;;;;;5.35;90.44;101784.72;4952195;28;20088;-74
2023/04/26 06:32:39;;;;;;;19.05;14.25;;;;;;;5.39;90.87;101781.16;4917190;28;20420;-72
2023/04/26 06:35:05;;;;;;;20.63;13.32;;;;;;;5.44;91.12;101784.59;4903142;29;20523;-74
2023/04/26 06:37:31;;;;;;;20.17;13.45;;;;;;;5.53;90.69;101790.63;4915384;28;20036;-72
2023/04/26 06:39:56;;;;;;;22.00;13.93;;;;;;;5.65;89.39;101793.09;4903570;28;20036;-75
2023/04/26 06:42:22;;;;;;;25.50;13.75;;;;;;;5.89;90.09;101791.81;4913735;28;20051;-74
2023/04/26 06:44:47;;;;;;;21.52;16.52;;;;;;;6.20;88.66;101794.84;4901492;28;20032;-72
2023/04/26 06:47:13;;;;;;;20.00;13.00;;;;;;;6.54;86.35;101791.59;4905870;28;20125;-74
2023/04/26 06:49:38;;;;;;;21.15;12.80;;;;;;;6.71;84.31;101794.78;4902894;28;20028;-73
2023/04/26 06:52:05;;;;;;;17.67;12.10;;;;;;;6.81;83.53;101804.25;4907119;28;20032;-76
2023/04/26 06:54:31;;;;;;;17.40;11.52;;;;;;;6.78;82.72;101793.75;4903477;28;20060;-73
2023/04/26 06:56:57;;;;;;;19.23;11.82;;;;;;;6.70;82.85;101799.19;4913918;28;20396;-73
2023/04/26 06:59:22;;;;;;;15.73;11.15;;;;;;;6.58;83.31;101803.84;4899666;28;20111;-74
2023/04/26 07:01:47;;;;;;;15.45;10.90;;;;;;;6.44;81.87;101796.19;4914232;28;20066;-74
2023/04/26 07:04:14;;;;;;;13.90;10.05;;;;;;;6.43;81.49;101797.06;4911089;28;20240;-73
2023/04/26 07:06:39;;;;;;;15.75;10.43;;;;;;;6.49;82.14;101804.91;4903272;28;20028;-73
2023/04/26 07:09:04;;;;;;;13.35;10.00;;;;;;;6.58;83.05;101799.44;4938879;28;20033;-75
2023/04/26 07:11:30;;;;;;;13.70;8.57;;;;;;;6.76;79.69;101797.31;4937971;28;20028;-73
2023/04/26 07:13:56;;;;;;;12.13;8.02;;;;;;;6.83;79.26;101799.81;4912017;28;20075;-74
2023/04/26 07:16:21;;;;;;;12.95;8.55;;;;;;;6.79;78.01;101792.84;4904829;28;20056;-75
2023/04/26 07:18:47;;;;;;;12.40;8.30;;;;;;;6.74;77.99;101805.31;4908678;29;20090;-75
2023/04/26 07:21:13;;;;;;;14.20;8.88;;;;;;;6.83;78.70;101798.97;4954240;28;20547;-73
2023/04/26 07:23:38;;;;;;;11.25;8.02;;;;;;;6.82;78.25;101807.81;4902270;28;20408;-74
2023/04/26 07:26:04;;;;;;;13.05;8.00;;;;;;;7.17;77.89;101809.72;4906245;28;20329;-75
2023/04/26 07:28:30;;;;;;;10.43;6.25;;;;;;;7.33;75.00;101802.31;4926838;28;20493;-73
2023/04/26 07:30:56;;;;;;;12.05;6.97;;;;;;;7.59;74.34;101799.94;4903209;29;20352;-75
2023/04/26 07:33:22;;;;;;;12.05;6.90;;;;;;;7.81;74.57;101794.13;4913633;29;20039;-74
2023/04/26 07:35:58;;;;;;;10.45;6.35;;;;;;;8.09;73.21;101797.84;4905355;28;20524;-73
2023/04/26 07:38:23;;;;;;;10.80;5.80;;;;;;;8.22;70.22;101795.75;4900977;28;20075;-73
2023/04/26 07:40:50;;;;;;;7.57;5.35;;;;;;;8.51;69.79;101795.00;4897594;28;20140;-71
2023/04/26 07:43:16;;;;;;;10.20;5.43;;;;;;;8.57;67.25;101793.97;4902732;28;20036;-73
2023/04/26 07:45:42;;;;;;;7.30;4.20;;;;;;;8.58;64.62;101793.06;4904385;28;20025;-74
2023/04/26 07:48:07;;;;;;;6.78;4.18;;;;;;;8.59;65.06;101794.81;4906026;29;20032;-72
2023/04/26 07:50:33;;;;;;;8.77;4.07;;;;;;;8.91;64.12;101793.91;4902626;29;20047;-73
2023/04/26 07:52:58;;;;;;;7.18;4.40;;;;;;;9.14;62.94;101791.44;4898333;29;20074;-75
2023/04/26 07:55:24;;;;;;;7.38;3.80;;;;;;;9.44;63.26;101781.66;4904833;28;20055;-74
2023/04/26 07:57:49;;;;;;;8.30;3.40;;;;;;;9.57;60.94;101787.47;4904274;29;20017;-73
2023/04/26 08:00:16;;;;;;;5.63;3.63;;;;;;;9.59;60.53;101790.09;4904632;29;20024;-73
2023/04/26 08:02:41;;;;;;;5.93;2.83;;;;;;;9.70;57.65;101790.63;4928906;28;20042;-74
2023/04/26 08:05:07;;;;;;;4.60;2.35;;;;;;;9.70;57.87;101786.16;4925918;28;20107;-73
2023/04/26 08:07:32;;;;;;;4.63;2.17;;;;;;;9.37;58.11;101800.53;4904287;28;20042;-74
2023/04/26 08:09:58;;;;;;;6.40;2.08;;;;;;;9.06;56.21;101788.13;4904028;29;20079;-74
2023/04/26 08:12:23;;;;;;;7.43;2.10;;;;;;;9.31;60.45;101801.56;4903580;29;20117;-74
2023/04/26 08:14:49;;;;;;;6.10;3.30;;;;;;;10.50;57.37;101804.78;4904568;29;20511;-73
2023/04/26 08:17:15;;;;;;;6.72;3.40;;;;;;;10.50;54.20;101807.47;4905843;28;20028;-73
2023/04/26 08:19:40;;;;;;;6.00;2.88;;;;;;;10.55;55.49;101820.59;4909502;28;20063;-73
2023/04/26 08:22:06;;;;;;;7.25;4.03;;;;;;;10.48;56.46;101811.94;4941979;28;20024;-76
2023/04/26 08:24:31;;;;;;;9.38;4.07;;;;;;;10.32;56.55;101813.41;4903216;29;20029;-73
2023/04/26 08:26:57;;;;;;;7.68;3.78;;;;;;;10.19;56.83;101805.81;4903956;29;20532;-74
2023/04/26 08:29:24;;;;;;;8.73;3.22;;;;;;;9.93;55.88;101806.69;4907412;28;20042;-73
2023/04/26 08:31:50;;;;;;;7.97;4.03;;;;;;;9.59;55.17;101798.91;4902697;29;20223;-73
2023/04/26 08:34:16;;;;;;;7.60;3.08;;;;;;;9.33;57.12;101802.41;4903085;29;20729;-74
2023/04/26 08:36:42;;;;;;;7.40;3.33;;;;;;;9.35;57.49;101805.84;4945949;28;20033;-75
2023/04/26 08:39:07;;;;;;;6.10;3.22;;;;;;;9.21;57.57;101805.41;4925312;28;20028;-73
2023/04/26 08:41:42;;;;;;;7.72;3.30;;;;;;;9.28;58.01;101809.63;4905929;28;20523;-73
2023/04/26 08:44:08;;;;;;;6.22;3.50;;;;;;;9.23;55.34;101814.19;4906945;28;20090;-73
2023/04/26 08:46:44;;;;;;;7.00;3.03;;;;;;;9.21;55.27;101810.72;4910888;28;20043;-74
2023/04/26 08:49:41;;;;;;;7.45;3.40;;;;;;;9.70;56.11;101796.81;4917179;28;23370;-73
2023/04/26 08:52:11;;;;;;;7.38;2.75;;;;;;;9.44;54.17;101788.75;4914197;28;20044;-74
2023/04/26 08:54:38;;;;;;;4.25;2.45;;;;;;;9.25;55.04;101793.78;4905970;28;20059;-74
2023/04/26 08:57:06;;;;;;;4.97;2.90;;;;;;;8.91;54.40;101800.09;4908987;28;20167;-73
2023/04/26 08:59:34;;;;;;;4.80;2.63;;;;;;;8.86;55.70;101796.69;4912133;29;20028;-73
2023/04/26 09:02:02;;;;;;;4.78;2.75;;;;;;;8.87;55.64;101802.88;4904614;28;20457;-74
2023/04/26 09:04:27;;;;;;;5.68;2.78;;;;;;;9.06;55.85;101792.59;4900300;29;20051;-75
2023/04/26 09:06:58;;;;;;;7.25;3.40;;;;;;;9.07;55.70;101804.94;4907575;29;20297;-72
2023/04/26 09:09:26;;;;;;;8.38;3.30;;;;;;;9.21;54.23;101802.75;4916787;28;20059;-75
2023/04/26 09:11:56;;;;;;;8.18;3.35;;;;;;;9.70;54.00;101798.59;4936563;28;20018;-74
2023/04/26 09:14:22;;;;;;;7.78;2.90;;;;;;;10.23;52.92;101791.47;4905361;28;20666;-74
2023/04/26 09:16:48;;;;;;;6.43;2.50;;;;;;;10.56;51.51;101787.72;4920711;28;20272;-73
2023/04/26 09:19:13;;;;;;;3.95;2.33;;;;;;;10.61;51.67;101788.44;4910491;28;20028;-74
2023/04/26 09:21:44;;;;;;;5.78;3.30;;;;;;;11.05;50.60;101791.25;4902641;28;20036;-74
2023/04/26 09:24:10;;;;;;;10.52;3.40;;;;;;;12.84;46.76;101778.50;4902887;28;20113;-74
2023/04/26 09:26:36;;;;;;;6.80;3.42;;;;;;;14.06;43.52;101772.66;4902115;28;20046;-74
2023/04/26 09:29:16;;;;;;;5.70;2.75;;;;;;;14.76;44.03;101770.81;4926420;28;20028;-73
2023/04/26 09:31:47;;;;;;;5.78;2.90;;;;;;;14.15;42.16;101766.81;4904408;28;20035;-74
2023/04/26 09:34:13;;;;;;;5.50;3.30;;;;;;;13.69;43.17;101777.16;4919255;28;20514;-73
2023/04/26 09:36:49;;;;;;;5.53;3.40;;;;;;;13.07;45.55;101789.00;4909223;28;20043;-73
2023/04/26 09:39:28;;;;;;;7.38;3.42;;;;;;;12.41;44.18;101783.94;4905958;28;20035;-74
2023/04/26 09:41:54;;;;;;;5.88;3.20;;;;;;;11.68;45.78;101792.34;4903898;28;20028;-73
2023/04/26 09:44:22;;;;;;;4.40;2.63;;;;;;;11.14;47.03;101791.78;4937616;28;20039;-73
2023/04/26 09:47:01;;;;;;;4.78;2.75;;;;;;;10.76;49.80;101795.00;4907896;28;20032;-73
2023/04/26 09:49:31;;;;;;;6.38;3.00;;;;;;;10.54;49.19;101794.91;4906984;28;20127;-72
2023/04/26 09:52:06;;;;;;;6.43;3.53;;;;;;;10.28;49.29;101791.34;4905877;28;20020;-74
2023/04/26 09:54:57;;;;;;;7.35;3.17;;;;;;;10.36;51.14;101788.41;4972296;28;20204;-74
2023/04/26 09:57:23;;;;;;;6.68;2.90;;;;;;;10.31;49.28;101787.72;4908312;28;20052;-72
2023/04/26 09:59:50;;;;;;;7.20;3.10;;;;;;;10.53;48.61;101783.38;4904222;28;20047;-74
2023/04/26 10:02:21;;;;;;;7.68;3.72;;;;;;;10.88;47.67;101784.75;4906434;28;20016;-73
2023/04/26 10:04:49;;;;;;;6.15;3.25;;;;;;;11.30;46.53;101781.41;4917095;28;20036;-72
2023/04/26 10:07:17;;;;;;;6.35;3.33;;;;;;;11.61;45.84;101777.50;4909042;28;20428;-72
2023/04/26 10:09:43;;;;;;;4.85;2.92;;;;;;;11.87;44.82;101772.03;4901489;28;20066;-74
2023/04/26 10:12:12;;;;;;;3.90;3.08;;;;;;;12.16;44.42;101765.47;4906130;28;20060;-73
2023/04/26 10:14:38;;;;;;;5.38;3.08;;;;;;;12.66;44.14;101774.84;4906520;28;20035;-75
2023/04/26 10:17:04;;;;;;;7.25;3.63;;;;;;;12.79;43.63;101775.16;4906019;29;20485;-74
2023/04/26 10:19:33;;;;;;;8.95;3.80;;;;;;;12.70;42.91;101781.78;4939083;28;20052;-73
2023/04/26 10:22:03;;;;;;;6.28;2.92;;;;;;;12.68;41.48;101775.66;4902629;29;20039;-73
2023/04/26 10:24:29;;;;;;;6.38;2.70;;;;;;;13.17;40.99;101773.41;4925267;28;20039;-74
2023/04/26 10:26:58;;;;;;;5.40;2.85;;;;;;;13.93;39.79;101774.22;4916766;28;20043;-73
2023/04/26 10:29:25;;;;;;;5.10;3.00;;;;;;;14.43;38.52;101774.28;4902986;28;20024;-73
2023/04/26 10:32:03;;;;;;;4.97;2.85;;;;;;;14.77;40.13;101771.69;4903941;28;20512;-75
2023/04/26 10:34:32;;;;;;;5.43;2.65;;;;;;;14.67;38.14;101769.50;4903752;28;20114;-73
2023/04/26 10:37:13;;;;;;;7.78;3.13;;;;;;;14.53;39.63;101769.34;4909757;28;20103;-73
2023/04/26 10:39:40;;;;;;;6.55;2.60;;;;;;;14.30;38.00;101767.84;4904378;28;21271;-72
2023/04/26 10:42:22;;;;;;;5.47;2.67;;;;;;;14.36;39.48;101751.44;4906831;28;20032;-74
2023/04/26 10:45:25;;;;;;;5.68;2.50;;;;;;;15.04;39.50;101755.91;4901866;28;20119;-73
2023/04/26 10:48:10;;;;;;;5.20;2.72;;;;;;;15.77;38.48;101751.78;4904060;28;20024;-73
2023/04/26 10:51:03;;;;;;;4.80;2.53;;;;;;;16.48;37.10;101755.63;4898068;28;20040;-75
2023/04/26 10:53:44;;;;;;;5.80;2.58;;;;;;;16.51;36.04;101750.03;4904708;29;20480;-73
2023/04/26 10:56:10;;;;;;;4.85;2.70;;;;;;;15.78;33.37;101739.22;4910364;28;20395;-72
2023/04/26 10:58:40;;;;;;;4.53;2.85;;;;;;;14.84;35.14;101746.25;4927906;28;20102;-75
2023/04/26 11:01:16;;;;;;;4.90;2.50;;;;;;;14.24;36.37;101745.88;4902125;28;20027;-74
2023/04/26 11:03:43;;;;;;;8.20;2.72;;;;;;;13.82;37.15;101755.13;4905894;28;20535;-75
2023/04/26 11:06:12;;;;;;;4.22;2.90;;;;;;;13.53;38.26;101753.91;4904166;28;20039;-74
2023/04/26 11:08:38;;;;;;;6.53;2.85;;;;;;;13.21;37.49;101753.63;4904467;28;20047;-74
2023/04/26 11:11:03;;;;;;;5.50;3.03;;;;;;;13.09;38.48;101751.53;4905122;28;20111;-74
2023/04/26 11:13:34;;;;;;;5.25;2.80;;;;;;;12.85;39.12;101757.06;4906205;29;20028;-73
2023/04/26 11:16:02;;;;;;;4.40;2.70;;;;;;;12.78;38.47;101750.25;4909772;29;20078;-73
2023/04/26 11:18:29;;;;;;;6.00;2.92;;;;;;;12.40;37.84;101750.16;4952419;28;20081;-73